sensor_id;sensor_type;location;lat;lon;timestamp;temperature;humidity
34644;DHT22;26931;43.498;-1.506;2023-06-04T00:02:04;22.20;98.60
34644;DHT22;26931;43.498;-1.506;2023-06-04T00:04:30;22.10;98.70
34644;DHT22;26931;43.498;-1.506;2023-06-04T00:06:56;22.10;98.70
34644;DHT22;26931;43.498;-1.506;2023-06-04T00:09:22;22.10;98.70
34644;DHT22;26931;43.498;-1.506;2023-06-04T00:11:48;22.00;98.70
34644;DHT22;26931;43.498;-1.506;2023-06-04T00:14:14;22.00;98.70
34644;DHT22;26931;43.498;-1.506;2023-06-04T00:16:41;22.00;98.70
34644;DHT22;26931;43.498;-1.506;2023-06-04T00:19:08;22.10;98.70
34644;DHT22;26931;43.498;-1.506;2023-06-04T00:21:34;22.20;98.80
34644;DHT22;26931;43.498;-1.506;2023-06-04T00:24:01;21.90;98.70
34644;DHT22;26931;43.498;-1.506;2023-06-04T00:26:28;21.90;98.70
34644;DHT22;26931;43.498;-1.506;2023-06-04T00:28:54;21.90;98.70
34644;DHT22;26931;43.498;-1.506;2023-06-04T00:31:21;21.90;98.70
34644;DHT22;26931;43.498;-1.506;2023-06-04T00:33:47;21.80;98.70
34644;DHT22;26931;43.498;-1.506;2023-06-04T00:36:14;21.80;98.70
34644;DHT22;26931;43.498;-1.506;2023-06-04T00:38:40;21.80;98.80
34644;DHT22;26931;43.498;-1.506;2023-06-04T00:41:06;21.80;98.80
34644;DHT22;26931;43.498;-1.506;2023-06-04T00:43:32;21.80;98.90
34644;DHT22;26931;43.498;-1.506;2023-06-04T00:45:59;21.80;99.00
34644;DHT22;26931;43.498;-1.506;2023-06-04T00:48:26;21.70;99.00
34644;DHT22;26931;43.498;-1.506;2023-06-04T00:50:53;21.70;99.00
34644;DHT22;26931;43.498;-1.506;2023-06-04T00:53:21;21.80;99.10
34644;DHT22;26931;43.498;-1.506;2023-06-04T00:55:48;21.80;99.10
34644;DHT22;26931;43.498;-1.506;2023-06-04T00:58:14;21.80;99.20
34644;DHT22;26931;43.498;-1.506;2023-06-04T01:00:42;21.70;99.20
34644;DHT22;26931;43.498;-1.506;2023-06-04T01:03:18;21.70;99.30
34644;DHT22;26931;43.498;-1.506;2023-06-04T01:06:03;21.60;99.30
34644;DHT22;26931;43.498;-1.506;2023-06-04T01:08:31;21.50;99.30
34644;DHT22;26931;43.498;-1.506;2023-06-04T01:10:57;21.60;99.30
34644;DHT22;26931;43.498;-1.506;2023-06-04T01:13:24;21.50;99.30
34644;DHT22;26931;43.498;-1.506;2023-06-04T01:15:50;21.70;99.40
34644;DHT22;26931;43.498;-1.506;2023-06-04T01:18:26;21.50;99.40
34644;DHT22;26931;43.498;-1.506;2023-06-04T01:21:03;21.40;99.30
34644;DHT22;26931;43.498;-1.506;2023-06-04T01:26:09;21.40;99.30
34644;DHT22;26931;43.498;-1.506;2023-06-04T01:28:36;21.30;99.30
34644;DHT22;26931;43.498;-1.506;2023-06-04T01:31:03;21.30;99.30
34644;DHT22;26931;43.498;-1.506;2023-06-04T01:33:33;21.30;99.30
34644;DHT22;26931;43.498;-1.506;2023-06-04T01:35:59;21.30;99.60
34644;DHT22;26931;43.498;-1.506;2023-06-04T01:38:27;21.20;99.30
34644;DHT22;26931;43.498;-1.506;2023-06-04T01:40:53;21.20;99.40
34644;DHT22;26931;43.498;-1.506;2023-06-04T01:43:22;21.10;99.40
34644;DHT22;26931;43.498;-1.506;2023-06-04T01:45:48;21.10;99.40
34644;DHT22;26931;43.498;-1.506;2023-06-04T01:48:15;21.10;99.40
34644;DHT22;26931;43.498;-1.506;2023-06-04T01:50:41;21.10;99.50
34644;DHT22;26931;43.498;-1.506;2023-06-04T01:53:07;21.00;99.40
34644;DHT22;26931;43.498;-1.506;2023-06-04T01:55:33;21.10;99.40
34644;DHT22;26931;43.498;-1.506;2023-06-04T01:58:00;21.00;99.40
34644;DHT22;26931;43.498;-1.506;2023-06-04T02:00:26;21.00;99.50
34644;DHT22;26931;43.498;-1.506;2023-06-04T02:02:52;20.90;99.50
34644;DHT22;26931;43.498;-1.506;2023-06-04T02:05:21;20.90;99.60
34644;DHT22;26931;43.498;-1.506;2023-06-04T02:07:47;20.90;99.70
34644;DHT22;26931;43.498;-1.506;2023-06-04T02:10:19;21.10;99.80
34644;DHT22;26931;43.498;-1.506;2023-06-04T02:12:58;20.80;99.60
34644;DHT22;26931;43.498;-1.506;2023-06-04T02:15:25;20.80;99.70
34644;DHT22;26931;43.498;-1.506;2023-06-04T02:18:10;20.80;99.70
34644;DHT22;26931;43.498;-1.506;2023-06-04T02:20:42;20.80;99.70
34644;DHT22;26931;43.498;-1.506;2023-06-04T02:23:09;20.70;99.60
34644;DHT22;26931;43.498;-1.506;2023-06-04T02:25:35;20.70;99.60
34644;DHT22;26931;43.498;-1.506;2023-06-04T02:28:01;20.90;99.70
34644;DHT22;26931;43.498;-1.506;2023-06-04T02:30:27;20.80;99.70
34644;DHT22;26931;43.498;-1.506;2023-06-04T02:32:53;20.80;99.80
34644;DHT22;26931;43.498;-1.506;2023-06-04T02:35:21;20.80;99.60
34644;DHT22;26931;43.498;-1.506;2023-06-04T02:37:49;20.70;99.60
34644;DHT22;26931;43.498;-1.506;2023-06-04T02:40:15;20.90;99.70
34644;DHT22;26931;43.498;-1.506;2023-06-04T02:42:41;20.60;99.60
34644;DHT22;26931;43.498;-1.506;2023-06-04T02:45:09;20.90;99.70
34644;DHT22;26931;43.498;-1.506;2023-06-04T02:47:35;20.50;99.60
34644;DHT22;26931;43.498;-1.506;2023-06-04T02:50:02;20.60;99.60
34644;DHT22;26931;43.498;-1.506;2023-06-04T02:52:29;20.70;99.60
34644;DHT22;26931;43.498;-1.506;2023-06-04T02:54:56;20.70;99.50
34644;DHT22;26931;43.498;-1.506;2023-06-04T02:57:22;20.70;99.50
34644;DHT22;26931;43.498;-1.506;2023-06-04T02:59:49;20.70;99.30
34644;DHT22;26931;43.498;-1.506;2023-06-04T03:02:15;20.70;99.30
34644;DHT22;26931;43.498;-1.506;2023-06-04T03:04:41;20.90;99.20
34644;DHT22;26931;43.498;-1.506;2023-06-04T03:07:08;20.70;99.10
34644;DHT22;26931;43.498;-1.506;2023-06-04T03:09:37;20.70;99.00
34644;DHT22;26931;43.498;-1.506;2023-06-04T03:12:03;20.70;99.00
34644;DHT22;26931;43.498;-1.506;2023-06-04T03:14:30;20.80;99.00
34644;DHT22;26931;43.498;-1.506;2023-06-04T03:17:02;20.80;98.90
34644;DHT22;26931;43.498;-1.506;2023-06-04T03:19:40;20.80;98.80
34644;DHT22;26931;43.498;-1.506;2023-06-04T03:22:08;20.80;98.70
34644;DHT22;26931;43.498;-1.506;2023-06-04T03:24:39;20.80;98.70
34644;DHT22;26931;43.498;-1.506;2023-06-04T03:27:06;20.80;98.60
34644;DHT22;26931;43.498;-1.506;2023-06-04T03:29:33;20.90;98.60
34644;DHT22;26931;43.498;-1.506;2023-06-04T03:32:00;20.90;98.50
34644;DHT22;26931;43.498;-1.506;2023-06-04T03:34:27;20.90;98.50
34644;DHT22;26931;43.498;-1.506;2023-06-04T03:36:55;21.00;98.50
34644;DHT22;26931;43.498;-1.506;2023-06-04T03:39:22;21.10;98.50
34644;DHT22;26931;43.498;-1.506;2023-06-04T03:41:48;21.10;98.40
34644;DHT22;26931;43.498;-1.506;2023-06-04T03:44:15;21.10;98.50
34644;DHT22;26931;43.498;-1.506;2023-06-04T03:46:42;21.20;98.50
34644;DHT22;26931;43.498;-1.506;2023-06-04T03:49:13;21.20;98.50
34644;DHT22;26931;43.498;-1.506;2023-06-04T03:51:41;21.10;98.50
34644;DHT22;26931;43.498;-1.506;2023-06-04T03:54:07;21.20;98.60
34644;DHT22;26931;43.498;-1.506;2023-06-04T03:56:34;21.20;98.60
34644;DHT22;26931;43.498;-1.506;2023-06-04T03:59:00;21.20;98.60
34644;DHT22;26931;43.498;-1.506;2023-06-04T04:01:26;21.20;98.50
34644;DHT22;26931;43.498;-1.506;2023-06-04T04:03:53;21.20;98.50
34644;DHT22;26931;43.498;-1.506;2023-06-04T04:06:21;21.30;98.50
34644;DHT22;26931;43.498;-1.506;2023-06-04T04:08:47;21.10;98.30
34644;DHT22;26931;43.498;-1.506;2023-06-04T04:11:16;21.10;98.20
34644;DHT22;26931;43.498;-1.506;2023-06-04T04:13:45;21.00;98.10
34644;DHT22;26931;43.498;-1.506;2023-06-04T04:16:12;21.00;98.20
34644;DHT22;26931;43.498;-1.506;2023-06-04T04:18:38;20.90;98.10
34644;DHT22;26931;43.498;-1.506;2023-06-04T04:21:04;20.90;98.00
34644;DHT22;26931;43.498;-1.506;2023-06-04T04:23:31;20.80;98.00
34644;DHT22;26931;43.498;-1.506;2023-06-04T04:25:58;20.80;98.30
34644;DHT22;26931;43.498;-1.506;2023-06-04T04:28:25;20.70;98.10
34644;DHT22;26931;43.498;-1.506;2023-06-04T04:30:57;20.60;98.10
34644;DHT22;26931;43.498;-1.506;2023-06-04T04:33:25;20.60;98.20
34644;DHT22;26931;43.498;-1.506;2023-06-04T04:35:52;20.60;98.30
34644;DHT22;26931;43.498;-1.506;2023-06-04T04:38:21;20.50;98.30
34644;DHT22;26931;43.498;-1.506;2023-06-04T04:40:50;20.50;98.30
34644;DHT22;26931;43.498;-1.506;2023-06-04T04:43:29;20.50;98.30
34644;DHT22;26931;43.498;-1.506;2023-06-04T04:45:56;20.50;98.20
34644;DHT22;26931;43.498;-1.506;2023-06-04T04:48:22;20.60;98.30
34644;DHT22;26931;43.498;-1.506;2023-06-04T04:50:48;20.60;98.30
34644;DHT22;26931;43.498;-1.506;2023-06-04T04:53:14;20.50;98.10
34644;DHT22;26931;43.498;-1.506;2023-06-04T04:55:40;20.60;98.20
34644;DHT22;26931;43.498;-1.506;2023-06-04T04:58:06;20.60;98.20
34644;DHT22;26931;43.498;-1.506;2023-06-04T05:00:32;20.60;98.20
34644;DHT22;26931;43.498;-1.506;2023-06-04T05:02:58;20.60;98.20
34644;DHT22;26931;43.498;-1.506;2023-06-04T05:05:24;20.60;98.10
34644;DHT22;26931;43.498;-1.506;2023-06-04T05:07:50;20.60;98.10
34644;DHT22;26931;43.498;-1.506;2023-06-04T05:10:16;20.70;98.10
34644;DHT22;26931;43.498;-1.506;2023-06-04T05:12:53;20.60;98.10
34644;DHT22;26931;43.498;-1.506;2023-06-04T05:15:20;20.60;98.10
34644;DHT22;26931;43.498;-1.506;2023-06-04T05:17:46;20.60;98.10
34644;DHT22;26931;43.498;-1.506;2023-06-04T05:20:13;20.60;98.10
34644;DHT22;26931;43.498;-1.506;2023-06-04T05:22:40;20.60;98.10
34644;DHT22;26931;43.498;-1.506;2023-06-04T05:25:06;20.60;98.10
34644;DHT22;26931;43.498;-1.506;2023-06-04T05:27:34;20.60;98.10
34644;DHT22;26931;43.498;-1.506;2023-06-04T05:30:01;20.80;98.50
34644;DHT22;26931;43.498;-1.506;2023-06-04T05:32:28;20.80;98.20
34644;DHT22;26931;43.498;-1.506;2023-06-04T05:34:54;20.60;98.10
34644;DHT22;26931;43.498;-1.506;2023-06-04T05:37:27;20.80;98.20
34644;DHT22;26931;43.498;-1.506;2023-06-04T05:39:55;20.80;98.30
34644;DHT22;26931;43.498;-1.506;2023-06-04T05:42:21;20.60;98.20
34644;DHT22;26931;43.498;-1.506;2023-06-04T05:44:47;20.60;98.20
34644;DHT22;26931;43.498;-1.506;2023-06-04T05:47:14;20.60;98.20
34644;DHT22;26931;43.498;-1.506;2023-06-04T05:49:41;20.60;98.20
34644;DHT22;26931;43.498;-1.506;2023-06-04T05:52:07;20.70;98.20
34644;DHT22;26931;43.498;-1.506;2023-06-04T05:54:33;20.80;98.20
34644;DHT22;26931;43.498;-1.506;2023-06-04T05:56:59;20.80;98.10
34644;DHT22;26931;43.498;-1.506;2023-06-04T05:59:25;20.80;98.00
34644;DHT22;26931;43.498;-1.506;2023-06-04T06:01:51;20.80;97.90
34644;DHT22;26931;43.498;-1.506;2023-06-04T06:04:18;20.80;97.90
34644;DHT22;26931;43.498;-1.506;2023-06-04T06:06:44;20.70;97.90
34644;DHT22;26931;43.498;-1.506;2023-06-04T06:09:16;20.70;97.90
34644;DHT22;26931;43.498;-1.506;2023-06-04T06:11:42;20.70;97.80
34644;DHT22;26931;43.498;-1.506;2023-06-04T06:14:08;20.60;97.80
34644;DHT22;26931;43.498;-1.506;2023-06-04T06:16:34;20.80;97.80
34644;DHT22;26931;43.498;-1.506;2023-06-04T06:19:01;20.80;97.80
34644;DHT22;26931;43.498;-1.506;2023-06-04T06:21:27;20.80;97.80
34644;DHT22;26931;43.498;-1.506;2023-06-04T06:23:56;20.80;97.80
34644;DHT22;26931;43.498;-1.506;2023-06-04T06:26:22;20.90;97.80
34644;DHT22;26931;43.498;-1.506;2023-06-04T06:28:50;21.10;97.90
34644;DHT22;26931;43.498;-1.506;2023-06-04T06:31:16;20.90;97.90
34644;DHT22;26931;43.498;-1.506;2023-06-04T06:33:42;20.90;98.00
34644;DHT22;26931;43.498;-1.506;2023-06-04T06:36:10;20.90;98.00
34644;DHT22;26931;43.498;-1.506;2023-06-04T06:38:39;20.90;98.10
34644;DHT22;26931;43.498;-1.506;2023-06-04T06:41:06;20.90;98.00
34644;DHT22;26931;43.498;-1.506;2023-06-04T06:43:32;21.20;98.10
34644;DHT22;26931;43.498;-1.506;2023-06-04T06:45:59;21.00;98.00
34644;DHT22;26931;43.498;-1.506;2023-06-04T06:48:25;21.00;98.00
34644;DHT22;26931;43.498;-1.506;2023-06-04T06:50:51;21.10;97.90
34644;DHT22;26931;43.498;-1.506;2023-06-04T06:53:17;21.10;97.90
34644;DHT22;26931;43.498;-1.506;2023-06-04T06:55:43;21.10;97.80
34644;DHT22;26931;43.498;-1.506;2023-06-04T06:58:09;21.00;97.80
34644;DHT22;26931;43.498;-1.506;2023-06-04T07:00:35;21.10;97.80
34644;DHT22;26931;43.498;-1.506;2023-06-04T07:03:01;21.10;97.80
34644;DHT22;26931;43.498;-1.506;2023-06-04T07:05:28;21.20;97.80
34644;DHT22;26931;43.498;-1.506;2023-06-04T07:07:54;21.20;97.80
34644;DHT22;26931;43.498;-1.506;2023-06-04T07:10:21;21.20;97.70
34644;DHT22;26931;43.498;-1.506;2023-06-04T07:12:47;21.20;97.70
34644;DHT22;26931;43.498;-1.506;2023-06-04T07:15:13;21.20;97.70
34644;DHT22;26931;43.498;-1.506;2023-06-04T07:17:39;21.30;97.70
34644;DHT22;26931;43.498;-1.506;2023-06-04T07:20:06;21.40;97.60
34644;DHT22;26931;43.498;-1.506;2023-06-04T07:22:34;21.30;97.60
34644;DHT22;26931;43.498;-1.506;2023-06-04T07:25:00;21.40;97.50
34644;DHT22;26931;43.498;-1.506;2023-06-04T07:27:26;21.50;97.50
34644;DHT22;26931;43.498;-1.506;2023-06-04T07:29:52;21.30;97.40
34644;DHT22;26931;43.498;-1.506;2023-06-04T07:32:18;21.50;97.60
34644;DHT22;26931;43.498;-1.506;2023-06-04T07:34:45;21.50;97.60
34644;DHT22;26931;43.498;-1.506;2023-06-04T07:37:10;21.70;97.70
34644;DHT22;26931;43.498;-1.506;2023-06-04T07:39:39;21.70;97.70
34644;DHT22;26931;43.498;-1.506;2023-06-04T07:42:05;21.80;97.80
34644;DHT22;26931;43.498;-1.506;2023-06-04T07:44:33;21.80;97.70
34644;DHT22;26931;43.498;-1.506;2023-06-04T07:46:59;21.90;97.80
34644;DHT22;26931;43.498;-1.506;2023-06-04T07:49:25;21.90;97.70
34644;DHT22;26931;43.498;-1.506;2023-06-04T07:51:51;22.00;97.70
34644;DHT22;26931;43.498;-1.506;2023-06-04T07:54:17;22.00;97.60
34644;DHT22;26931;43.498;-1.506;2023-06-04T07:56:43;22.00;97.60
34644;DHT22;26931;43.498;-1.506;2023-06-04T07:59:09;22.10;97.60
34644;DHT22;26931;43.498;-1.506;2023-06-04T08:01:35;22.10;97.50
34644;DHT22;26931;43.498;-1.506;2023-06-04T08:04:01;22.10;97.50
34644;DHT22;26931;43.498;-1.506;2023-06-04T08:06:27;22.10;97.40
34644;DHT22;26931;43.498;-1.506;2023-06-04T08:08:53;22.20;97.40
34644;DHT22;26931;43.498;-1.506;2023-06-04T08:11:19;22.20;97.40
34644;DHT22;26931;43.498;-1.506;2023-06-04T08:13:48;22.20;97.40
34644;DHT22;26931;43.498;-1.506;2023-06-04T08:16:14;22.20;97.30
34644;DHT22;26931;43.498;-1.506;2023-06-04T08:18:41;22.20;97.30
34644;DHT22;26931;43.498;-1.506;2023-06-04T08:21:11;22.20;97.20
34644;DHT22;26931;43.498;-1.506;2023-06-04T08:23:37;22.20;97.20
34644;DHT22;26931;43.498;-1.506;2023-06-04T08:26:03;22.20;97.10
34644;DHT22;26931;43.498;-1.506;2023-06-04T08:28:29;22.40;97.40
34644;DHT22;26931;43.498;-1.506;2023-06-04T08:30:56;22.30;97.00
34644;DHT22;26931;43.498;-1.506;2023-06-04T08:33:22;22.30;97.00
34644;DHT22;26931;43.498;-1.506;2023-06-04T08:35:48;22.30;97.00
34644;DHT22;26931;43.498;-1.506;2023-06-04T08:38:14;22.30;96.90
34644;DHT22;26931;43.498;-1.506;2023-06-04T08:40:40;22.40;96.90
34644;DHT22;26931;43.498;-1.506;2023-06-04T08:43:06;22.40;96.90
34644;DHT22;26931;43.498;-1.506;2023-06-04T08:45:38;22.40;96.90
34644;DHT22;26931;43.498;-1.506;2023-06-04T08:48:12;22.50;96.90
34644;DHT22;26931;43.498;-1.506;2023-06-04T08:50:40;22.50;96.90
34644;DHT22;26931;43.498;-1.506;2023-06-04T08:53:11;22.60;96.90
34644;DHT22;26931;43.498;-1.506;2023-06-04T08:55:39;22.60;96.80
34644;DHT22;26931;43.498;-1.506;2023-06-04T08:58:05;22.70;96.80
34644;DHT22;26931;43.498;-1.506;2023-06-04T09:00:33;22.70;96.70
34644;DHT22;26931;43.498;-1.506;2023-06-04T09:03:02;22.90;96.80
34644;DHT22;26931;43.498;-1.506;2023-06-04T09:05:31;22.70;96.70
34644;DHT22;26931;43.498;-1.506;2023-06-04T09:08:00;22.80;96.70
34644;DHT22;26931;43.498;-1.506;2023-06-04T09:10:26;22.90;96.70
34644;DHT22;26931;43.498;-1.506;2023-06-04T09:12:57;22.90;96.60
34644;DHT22;26931;43.498;-1.506;2023-06-04T09:15:25;22.90;96.60
34644;DHT22;26931;43.498;-1.506;2023-06-04T09:17:51;23.00;96.50
34644;DHT22;26931;43.498;-1.506;2023-06-04T09:20:24;22.90;96.50
34644;DHT22;26931;43.498;-1.506;2023-06-04T09:22:50;23.10;96.50
34644;DHT22;26931;43.498;-1.506;2023-06-04T09:25:23;23.00;96.40
34644;DHT22;26931;43.498;-1.506;2023-06-04T09:27:57;23.10;96.40
34644;DHT22;26931;43.498;-1.506;2023-06-04T09:30:31;23.00;96.30
34644;DHT22;26931;43.498;-1.506;2023-06-04T09:33:09;23.00;96.20
34644;DHT22;26931;43.498;-1.506;2023-06-04T09:35:35;23.00;96.20
34644;DHT22;26931;43.498;-1.506;2023-06-04T09:38:01;23.00;96.20
34644;DHT22;26931;43.498;-1.506;2023-06-04T09:40:37;23.00;96.10
34644;DHT22;26931;43.498;-1.506;2023-06-04T09:43:03;23.00;96.20
34644;DHT22;26931;43.498;-1.506;2023-06-04T09:45:31;23.00;96.20
34644;DHT22;26931;43.498;-1.506;2023-06-04T09:48:00;22.90;96.10
34644;DHT22;26931;43.498;-1.506;2023-06-04T09:50:31;23.00;96.10
34644;DHT22;26931;43.498;-1.506;2023-06-04T09:52:59;23.30;96.10
34644;DHT22;26931;43.498;-1.506;2023-06-04T09:55:25;23.10;96.00
34644;DHT22;26931;43.498;-1.506;2023-06-04T09:57:52;23.10;95.90
34644;DHT22;26931;43.498;-1.506;2023-06-04T10:00:23;23.10;95.90
34644;DHT22;26931;43.498;-1.506;2023-06-04T10:02:57;23.20;95.80
34644;DHT22;26931;43.498;-1.506;2023-06-04T10:05:25;23.20;95.70
34644;DHT22;26931;43.498;-1.506;2023-06-04T10:07:51;23.30;95.60
34644;DHT22;26931;43.498;-1.506;2023-06-04T10:10:20;23.30;95.50
34644;DHT22;26931;43.498;-1.506;2023-06-04T10:12:58;23.30;95.40
34644;DHT22;26931;43.498;-1.506;2023-06-04T10:15:27;23.40;95.40
34644;DHT22;26931;43.498;-1.506;2023-06-04T10:17:54;23.40;95.40
34644;DHT22;26931;43.498;-1.506;2023-06-04T10:20:21;23.40;95.30
34644;DHT22;26931;43.498;-1.506;2023-06-04T10:22:49;23.40;95.20
34644;DHT22;26931;43.498;-1.506;2023-06-04T10:25:16;23.50;95.20
34644;DHT22;26931;43.498;-1.506;2023-06-04T10:27:44;23.50;95.10
34644;DHT22;26931;43.498;-1.506;2023-06-04T10:30:14;23.60;95.00
34644;DHT22;26931;43.498;-1.506;2023-06-04T10:32:40;23.70;94.90
34644;DHT22;26931;43.498;-1.506;2023-06-04T10:35:07;23.70;94.80
34644;DHT22;26931;43.498;-1.506;2023-06-04T10:37:34;23.70;94.80
34644;DHT22;26931;43.498;-1.506;2023-06-04T10:40:00;23.90;94.70
34644;DHT22;26931;43.498;-1.506;2023-06-04T10:42:26;23.90;94.60
34644;DHT22;26931;43.498;-1.506;2023-06-04T10:45:03;24.00;94.40
34644;DHT22;26931;43.498;-1.506;2023-06-04T10:47:29;24.00;94.20
34644;DHT22;26931;43.498;-1.506;2023-06-04T10:50:07;24.00;94.10
34644;DHT22;26931;43.498;-1.506;2023-06-04T10:52:34;24.10;94.00
34644;DHT22;26931;43.498;-1.506;2023-06-04T10:55:05;24.10;93.90
34644;DHT22;26931;43.498;-1.506;2023-06-04T10:57:32;24.20;93.90
34644;DHT22;26931;43.498;-1.506;2023-06-04T11:00:00;24.20;93.70
34644;DHT22;26931;43.498;-1.506;2023-06-04T11:02:26;24.20;93.60
34644;DHT22;26931;43.498;-1.506;2023-06-04T11:05:03;24.20;93.50
34644;DHT22;26931;43.498;-1.506;2023-06-04T11:07:46;24.20;93.40
34644;DHT22;26931;43.498;-1.506;2023-06-04T11:10:14;24.30;93.30
34644;DHT22;26931;43.498;-1.506;2023-06-04T11:12:49;24.20;93.20
34644;DHT22;26931;43.498;-1.506;2023-06-04T11:15:18;24.20;93.20
34644;DHT22;26931;43.498;-1.506;2023-06-04T11:17:52;24.30;93.20
34644;DHT22;26931;43.498;-1.506;2023-06-04T11:20:18;24.30;93.10
34644;DHT22;26931;43.498;-1.506;2023-06-04T11:22:54;24.30;93.10
34644;DHT22;26931;43.498;-1.506;2023-06-04T11:25:22;24.30;93.10
34644;DHT22;26931;43.498;-1.506;2023-06-04T11:27:49;24.30;92.90
34644;DHT22;26931;43.498;-1.506;2023-06-04T11:30:16;24.30;92.80
34644;DHT22;26931;43.498;-1.506;2023-06-04T11:32:42;24.30;92.70
34644;DHT22;26931;43.498;-1.506;2023-06-04T11:35:08;24.30;92.70
34644;DHT22;26931;43.498;-1.506;2023-06-04T11:37:36;24.20;92.60
34644;DHT22;26931;43.498;-1.506;2023-06-04T11:40:03;24.10;92.50
34644;DHT22;26931;43.498;-1.506;2023-06-04T11:42:32;24.20;92.50
34644;DHT22;26931;43.498;-1.506;2023-06-04T11:44:59;24.20;92.60
34644;DHT22;26931;43.498;-1.506;2023-06-04T11:47:25;24.20;92.60
34644;DHT22;26931;43.498;-1.506;2023-06-04T11:49:55;24.30;92.60
34644;DHT22;26931;43.498;-1.506;2023-06-04T11:52:24;24.20;92.60
34644;DHT22;26931;43.498;-1.506;2023-06-04T11:54:50;24.10;92.60
34644;DHT22;26931;43.498;-1.506;2023-06-04T11:57:16;24.00;92.60
34644;DHT22;26931;43.498;-1.506;2023-06-04T11:59:43;24.10;92.70
34644;DHT22;26931;43.498;-1.506;2023-06-04T12:02:09;24.10;92.70
34644;DHT22;26931;43.498;-1.506;2023-06-04T12:04:36;24.10;92.60
34644;DHT22;26931;43.498;-1.506;2023-06-04T12:07:03;24.00;92.60
34644;DHT22;26931;43.498;-1.506;2023-06-04T12:09:32;24.10;92.70
34644;DHT22;26931;43.498;-1.506;2023-06-04T12:12:06;24.00;92.70
34644;DHT22;26931;43.498;-1.506;2023-06-04T12:14:33;24.00;92.80
34644;DHT22;26931;43.498;-1.506;2023-06-04T12:17:07;24.20;92.80
34644;DHT22;26931;43.498;-1.506;2023-06-04T12:19:46;24.00;92.80
34644;DHT22;26931;43.498;-1.506;2023-06-04T12:22:14;24.00;92.80
34644;DHT22;26931;43.498;-1.506;2023-06-04T12:24:50;24.20;92.80
34644;DHT22;26931;43.498;-1.506;2023-06-04T12:27:23;24.00;92.70
34644;DHT22;26931;43.498;-1.506;2023-06-04T12:29:57;24.00;92.70
34644;DHT22;26931;43.498;-1.506;2023-06-04T12:32:23;24.00;92.70
34644;DHT22;26931;43.498;-1.506;2023-06-04T12:34:49;24.00;92.70
34644;DHT22;26931;43.498;-1.506;2023-06-04T12:37:19;23.90;92.70
34644;DHT22;26931;43.498;-1.506;2023-06-04T12:39:48;24.00;92.60
34644;DHT22;26931;43.498;-1.506;2023-06-04T12:42:19;24.00;92.70
34644;DHT22;26931;43.498;-1.506;2023-06-04T12:44:47;24.00;92.70
34644;DHT22;26931;43.498;-1.506;2023-06-04T12:47:13;24.00;92.70
34644;DHT22;26931;43.498;-1.506;2023-06-04T12:49:39;24.00;93.10
34644;DHT22;26931;43.498;-1.506;2023-06-04T12:52:05;23.90;92.70
34644;DHT22;26931;43.498;-1.506;2023-06-04T12:54:32;24.00;92.70
34644;DHT22;26931;43.498;-1.506;2023-06-04T12:56:58;24.00;92.60
34644;DHT22;26931;43.498;-1.506;2023-06-04T12:59:25;24.00;92.60
34644;DHT22;26931;43.498;-1.506;2023-06-04T13:01:52;23.90;92.60
34644;DHT22;26931;43.498;-1.506;2023-06-04T13:04:19;24.10;92.60
34644;DHT22;26931;43.498;-1.506;2023-06-04T13:06:45;23.90;92.50
34644;DHT22;26931;43.498;-1.506;2023-06-04T13:09:14;23.70;92.40
34644;DHT22;26931;43.498;-1.506;2023-06-04T13:11:43;23.90;92.50
34644;DHT22;26931;43.498;-1.506;2023-06-04T13:14:10;23.90;92.50
34644;DHT22;26931;43.498;-1.506;2023-06-04T13:16:38;24.00;92.60
34644;DHT22;26931;43.498;-1.506;2023-06-04T13:19:05;23.90;92.60
34644;DHT22;26931;43.498;-1.506;2023-06-04T13:21:31;23.90;92.70
34644;DHT22;26931;43.498;-1.506;2023-06-04T13:23:57;24.00;92.70
34644;DHT22;26931;43.498;-1.506;2023-06-04T13:26:23;24.00;92.70
34644;DHT22;26931;43.498;-1.506;2023-06-04T13:28:49;23.90;92.70
34644;DHT22;26931;43.498;-1.506;2023-06-04T13:31:18;24.10;92.80
34644;DHT22;26931;43.498;-1.506;2023-06-04T13:33:44;24.00;92.70
34644;DHT22;26931;43.498;-1.506;2023-06-04T13:36:10;24.00;92.60
34644;DHT22;26931;43.498;-1.506;2023-06-04T13:38:36;23.90;92.60
34644;DHT22;26931;43.498;-1.506;2023-06-04T13:41:03;23.90;92.60
34644;DHT22;26931;43.498;-1.506;2023-06-04T13:43:29;24.00;92.50
34644;DHT22;26931;43.498;-1.506;2023-06-04T13:45:55;23.90;92.50
34644;DHT22;26931;43.498;-1.506;2023-06-04T13:48:22;23.90;92.50
34644;DHT22;26931;43.498;-1.506;2023-06-04T13:50:49;23.90;92.60
34644;DHT22;26931;43.498;-1.506;2023-06-04T13:53:15;23.90;92.60
34644;DHT22;26931;43.498;-1.506;2023-06-04T13:55:44;23.90;92.60
34644;DHT22;26931;43.498;-1.506;2023-06-04T13:58:11;23.90;92.70
34644;DHT22;26931;43.498;-1.506;2023-06-04T14:00:37;24.00;92.70
34644;DHT22;26931;43.498;-1.506;2023-06-04T14:03:03;23.90;92.70
34644;DHT22;26931;43.498;-1.506;2023-06-04T14:05:30;23.90;92.60
34644;DHT22;26931;43.498;-1.506;2023-06-04T14:07:56;23.90;92.50
34644;DHT22;26931;43.498;-1.506;2023-06-04T14:10:23;23.90;92.40
34644;DHT22;26931;43.498;-1.506;2023-06-04T14:12:49;23.90;92.30
34644;DHT22;26931;43.498;-1.506;2023-06-04T14:15:18;23.90;92.30
34644;DHT22;26931;43.498;-1.506;2023-06-04T14:17:45;23.90;92.30
34644;DHT22;26931;43.498;-1.506;2023-06-04T14:20:13;23.90;92.20
34644;DHT22;26931;43.498;-1.506;2023-06-04T14:22:40;23.90;92.20
34644;DHT22;26931;43.498;-1.506;2023-06-04T14:25:07;23.90;92.20
34644;DHT22;26931;43.498;-1.506;2023-06-04T14:27:34;24.00;92.30
34644;DHT22;26931;43.498;-1.506;2023-06-04T14:30:03;24.00;92.40
34644;DHT22;26931;43.498;-1.506;2023-06-04T14:32:30;24.30;92.50
34644;DHT22;26931;43.498;-1.506;2023-06-04T14:34:57;24.10;92.40
34644;DHT22;26931;43.498;-1.506;2023-06-04T14:37:23;24.10;92.40
34644;DHT22;26931;43.498;-1.506;2023-06-04T14:39:50;24.20;92.40
34644;DHT22;26931;43.498;-1.506;2023-06-04T14:42:19;24.10;92.40
34644;DHT22;26931;43.498;-1.506;2023-06-04T14:44:49;24.10;92.30
34644;DHT22;26931;43.498;-1.506;2023-06-04T14:47:17;24.10;92.30
34644;DHT22;26931;43.498;-1.506;2023-06-04T14:49:43;24.10;92.30
34644;DHT22;26931;43.498;-1.506;2023-06-04T14:52:10;24.20;92.30
34644;DHT22;26931;43.498;-1.506;2023-06-04T14:54:36;24.20;92.20
34644;DHT22;26931;43.498;-1.506;2023-06-04T14:57:02;24.20;92.20
34644;DHT22;26931;43.498;-1.506;2023-06-04T14:59:29;24.20;92.20
34644;DHT22;26931;43.498;-1.506;2023-06-04T15:01:55;24.20;92.10
34644;DHT22;26931;43.498;-1.506;2023-06-04T15:04:21;24.20;92.00
34644;DHT22;26931;43.498;-1.506;2023-06-04T15:06:48;24.20;92.00
34644;DHT22;26931;43.498;-1.506;2023-06-04T15:09:14;24.20;91.90
34644;DHT22;26931;43.498;-1.506;2023-06-04T15:11:40;24.20;91.90
34644;DHT22;26931;43.498;-1.506;2023-06-04T15:14:07;24.20;91.80
34644;DHT22;26931;43.498;-1.506;2023-06-04T15:16:33;24.20;91.80
34644;DHT22;26931;43.498;-1.506;2023-06-04T15:18:59;24.20;91.80
34644;DHT22;26931;43.498;-1.506;2023-06-04T15:21:25;24.30;91.80